createdAt,value
2022-11-01T00:01:45.793Z,101211.00
2022-11-01T00:04:12.372Z,101209.00
2022-11-01T00:06:38.852Z,101216.00
2022-11-01T00:09:05.310Z,101221.00
2022-11-01T00:11:31.804Z,101202.00
2022-11-01T00:13:58.230Z,101195.00
2022-11-01T00:16:24.961Z,101181.00
2022-11-01T00:18:51.394Z,101170.00
2022-11-01T00:21:18.652Z,101171.00
2022-11-01T00:23:45.954Z,101164.00
2022-11-01T00:26:19.072Z,101147.00
2022-11-01T00:28:45.787Z,101154.00
2022-11-01T00:31:13.801Z,101145.00
2022-11-01T00:33:40.713Z,101170.00
2022-11-01T00:36:07.893Z,101187.00
2022-11-01T00:38:34.661Z,101174.00
2022-11-01T00:41:02.667Z,101190.00
2022-11-01T00:43:29.767Z,101183.00
2022-11-01T00:45:56.251Z,101189.00
2022-11-01T00:48:22.904Z,101195.00
2022-11-01T00:50:49.375Z,101199.00
2022-11-01T00:53:15.869Z,101187.00
2022-11-01T00:55:42.345Z,101171.00
2022-11-01T00:58:08.960Z,101166.00
2022-11-01T01:00:36.207Z,101160.00
2022-11-01T01:03:04.681Z,101148.00
2022-11-01T01:05:32.618Z,101155.00
2022-11-01T01:07:59.114Z,101150.00
2022-11-01T01:10:25.654Z,101142.00
2022-11-01T01:12:52.325Z,101153.00
2022-11-01T01:15:18.914Z,101139.00
2022-11-01T01:17:45.624Z,101136.00
2022-11-01T01:20:12.119Z,101137.00
2022-11-01T01:22:38.815Z,101125.00
2022-11-01T01:25:05.822Z,101118.00
2022-11-01T01:27:32.285Z,101121.00
2022-11-01T01:29:58.724Z,101130.00
2022-11-01T01:32:25.178Z,101128.00
2022-11-01T01:34:51.584Z,101131.00
2022-11-01T01:37:18.540Z,101133.00
2022-11-01T01:39:44.972Z,101134.00
2022-11-01T01:42:30.246Z,101148.00
2022-11-01T01:44:56.637Z,101149.00
2022-11-01T01:47:26.501Z,101152.00
2022-11-01T01:50:15.869Z,101139.00
2022-11-01T01:52:51.032Z,101136.00
2022-11-01T01:55:22.491Z,101138.00
2022-11-01T01:57:48.996Z,101126.00
2022-11-01T02:00:15.925Z,101115.00
2022-11-01T02:02:42.710Z,101101.00
2022-11-01T02:05:18.235Z,101093.00
2022-11-01T02:07:45.365Z,101093.00
2022-11-01T02:10:14.606Z,101085.00
2022-11-01T02:12:45.463Z,101084.00
2022-11-01T02:15:13.559Z,101080.00
2022-11-01T02:18:09.081Z,101073.00
2022-11-01T02:21:08.130Z,101056.00
2022-11-01T02:23:56.705Z,101058.00
2022-11-01T02:27:00.850Z,101050.00
2022-11-01T02:29:48.053Z,101038.00
2022-11-01T02:32:20.477Z,101048.00
2022-11-01T02:35:00.731Z,101037.00
2022-11-01T02:37:34.864Z,101031.00
2022-11-01T02:40:07.368Z,101037.00
2022-11-01T02:42:42.891Z,101025.00
2022-11-01T02:45:27.558Z,101027.00
2022-11-01T02:47:58.997Z,101019.00
2022-11-01T02:50:28.543Z,101020.00
2022-11-01T02:52:55.308Z,101014.00
2022-11-01T02:55:30.062Z,101017.00
2022-11-01T02:58:21.868Z,101009.00
2022-11-01T03:00:48.714Z,101008.00
2022-11-01T03:03:22.918Z,101009.00
2022-11-01T03:05:54.988Z,101012.00
2022-11-01T03:08:27.116Z,101016.00
2022-11-01T03:11:08.201Z,101015.00
2022-11-01T03:14:12.302Z,101019.00
2022-11-01T03:16:54.900Z,101039.00
2022-11-01T03:19:43.017Z,101035.00
2022-11-01T03:22:28.137Z,101032.00
2022-11-01T03:25:38.378Z,101031.00
2022-11-01T03:28:10.321Z,101043.00
2022-11-01T03:30:42.008Z,101040.00
2022-11-01T03:33:10.510Z,101046.00
2022-11-01T03:35:39.257Z,101047.00
2022-11-01T03:38:13.694Z,101050.00
2022-11-01T03:40:44.400Z,101045.00
2022-11-01T03:43:13.480Z,101036.00
2022-11-01T03:45:41.216Z,101035.00
2022-11-01T03:48:08.133Z,101033.00
2022-11-01T03:50:34.765Z,101035.00
2022-11-01T03:53:01.193Z,101044.00
2022-11-01T03:55:27.986Z,101032.00
2022-11-01T03:57:57.094Z,101034.00
2022-11-01T04:00:32.845Z,101021.00
2022-11-01T04:03:01.028Z,101012.00
2022-11-01T04:05:29.627Z,101010.00
2022-11-01T04:07:57.513Z,101001.00
2022-11-01T04:10:25.450Z,101007.00
2022-11-01T04:12:52.528Z,101014.00
2022-11-01T04:15:39.184Z,101013.00
2022-11-01T04:18:31.460Z,101021.00
2022-11-01T04:20:58.472Z,101023.00
2022-11-01T04:23:25.001Z,101009.00
2022-11-01T04:25:51.472Z,101020.00
2022-11-01T04:28:18.104Z,101023.00
2022-11-01T04:30:44.579Z,101035.00
2022-11-01T04:33:11.131Z,101040.00
2022-11-01T04:35:38.958Z,101041.00
2022-11-01T04:38:06.179Z,101030.00
2022-11-01T04:40:33.977Z,101031.00
2022-11-01T04:43:00.401Z,101020.00
2022-11-01T04:45:27.074Z,100993.00
2022-11-01T04:48:16.930Z,100995.00
2022-11-01T04:50:45.631Z,101017.00
2022-11-01T04:53:12.070Z,101016.00
2022-11-01T04:55:38.813Z,101008.00
2022-11-01T04:58:06.650Z,101011.00
2022-11-01T05:00:33.672Z,101010.00
2022-11-01T05:03:04.956Z,100997.00
2022-11-01T05:05:32.116Z,100996.00
2022-11-01T05:08:10.626Z,101000.00
2022-11-01T05:10:42.557Z,100988.00
2022-11-01T05:13:09.613Z,100984.00
2022-11-01T05:15:39.971Z,100975.00
2022-11-01T05:18:14.493Z,100994.00
2022-11-01T05:20:40.929Z,100977.00
2022-11-01T05:23:07.434Z,100983.00
2022-11-01T05:25:37.059Z,100970.00
2022-11-01T05:28:07.800Z,100964.00
2022-11-01T05:30:35.740Z,100938.00
2022-11-01T05:33:03.443Z,100949.00
2022-11-01T05:35:31.009Z,100965.00
2022-11-01T05:37:57.752Z,100962.00
2022-11-01T05:40:25.122Z,100956.00
2022-11-01T05:42:54.879Z,100970.00
2022-11-01T05:45:21.453Z,100962.00
2022-11-01T05:47:47.956Z,100941.00
2022-11-01T05:50:16.361Z,100940.00
2022-11-01T05:52:43.101Z,100962.00
2022-11-01T05:55:10.294Z,100962.00
2022-11-01T05:57:36.795Z,100954.00
2022-11-01T06:00:05.026Z,100966.00
2022-11-01T06:02:32.836Z,100967.00
2022-11-01T06:05:02.823Z,100978.00
2022-11-01T06:07:29.796Z,100981.00
2022-11-01T06:09:56.243Z,100994.00
2022-11-01T06:12:24.622Z,100994.00
2022-11-01T06:14:51.849Z,100982.00
2022-11-01T06:17:18.308Z,100992.00
2022-11-01T06:19:44.933Z,100975.00
2022-11-01T06:22:11.396Z,100963.00
2022-11-01T06:24:37.829Z,100972.00
2022-11-01T06:27:07.449Z,100965.00
2022-11-01T06:29:36.709Z,100974.00
2022-11-01T06:32:04.601Z,100943.00
2022-11-01T06:34:31.589Z,100956.00
2022-11-01T06:36:58.400Z,100967.00
2022-11-01T06:39:24.882Z,100968.00
2022-11-01T06:41:51.854Z,100978.00
2022-11-01T06:44:18.289Z,100968.00
2022-11-01T06:46:44.903Z,100978.00
2022-11-01T06:49:16.324Z,100976.00
2022-11-01T06:51:48.926Z,100985.00
2022-11-01T06:54:15.363Z,100984.00
2022-11-01T06:56:41.792Z,100978.00
2022-11-01T06:59:08.630Z,100973.00
2022-11-01T07:01:35.155Z,100987.00
2022-11-01T07:04:01.766Z,100963.00
2022-11-01T07:06:31.154Z,100979.00
2022-11-01T07:08:58.937Z,100981.00
2022-11-01T07:11:30.924Z,100993.00
2022-11-01T07:13:59.246Z,100994.00
2022-11-01T07:16:26.104Z,100986.00
2022-11-01T07:18:52.748Z,101001.00
2022-11-01T07:21:19.490Z,101001.00
2022-11-01T07:23:46.284Z,101011.00
2022-11-01T07:26:13.175Z,101010.00
2022-11-01T07:28:39.596Z,101017.00
2022-11-01T07:31:06.670Z,101026.00
2022-11-01T07:33:33.122Z,101014.00
2022-11-01T07:36:00.905Z,101010.00
2022-11-01T07:38:27.331Z,101008.00
2022-11-01T07:40:54.684Z,101027.00
2022-11-01T07:43:21.996Z,101044.00
2022-11-01T07:45:48.432Z,101039.00
2022-11-01T07:48:17.299Z,101042.00
2022-11-01T07:50:46.117Z,101049.00
2022-11-01T07:53:18.312Z,101058.00
2022-11-01T07:55:45.780Z,101064.00
2022-11-01T07:58:13.423Z,101062.00
2022-11-01T08:00:40.410Z,101059.00
2022-11-01T08:03:12.408Z,101064.00
2022-11-01T08:05:39.211Z,101071.00
2022-11-01T08:08:07.117Z,101054.00
2022-11-01T08:10:34.439Z,101054.00
2022-11-01T08:13:05.421Z,101049.00
2022-11-01T08:15:32.760Z,101057.00
2022-11-01T08:17:59.456Z,101061.00
2022-11-01T08:20:26.137Z,101044.00
2022-11-01T08:22:53.139Z,101047.00
2022-11-01T08:25:20.217Z,101052.00
2022-11-01T08:27:47.096Z,101048.00
2022-11-01T08:30:18.594Z,101042.00
2022-11-01T08:32:45.267Z,101053.00
2022-11-01T08:35:12.532Z,101043.00
2022-11-01T08:37:48.600Z,101044.00
2022-11-01T08:40:15.045Z,101054.00
2022-11-01T08:42:41.655Z,101061.00
2022-11-01T08:45:08.199Z,101065.00
2022-11-01T08:47:34.626Z,101068.00
2022-11-01T08:50:01.049Z,101069.00
2022-11-01T08:52:28.076Z,101067.00
2022-11-01T08:54:54.487Z,101074.00
2022-11-01T08:57:20.951Z,101065.00
2022-11-01T08:59:47.398Z,101066.00
2022-11-01T09:02:14.016Z,101047.00
2022-11-01T09:04:40.542Z,101060.00
2022-11-01T09:07:06.950Z,101071.00
2022-11-01T09:09:33.374Z,101065.00
2022-11-01T09:11:59.859Z,101067.00
2022-11-01T09:14:26.555Z,101059.00
2022-11-01T09:16:52.961Z,101058.00
2022-11-01T09:19:19.671Z,101054.00
2022-11-01T09:21:46.807Z,101065.00
2022-11-01T09:24:15.009Z,101055.00
2022-11-01T09:26:41.995Z,101050.00
2022-11-01T09:29:08.671Z,101049.00
2022-11-01T09:31:35.105Z,101050.00
2022-11-01T09:34:01.660Z,101051.00
2022-11-01T09:36:28.912Z,101049.00
2022-11-01T09:38:56.902Z,101039.00
2022-11-01T09:41:32.834Z,101060.00
2022-11-01T09:44:01.936Z,101068.00
2022-11-01T09:46:32.112Z,101083.00
2022-11-01T09:49:03.821Z,101078.00
2022-11-01T09:51:30.484Z,101088.00
2022-11-01T09:54:04.403Z,101094.00
2022-11-01T09:56:43.147Z,101106.00
2022-11-01T09:59:36.901Z,101107.00
2022-11-01T10:02:26.353Z,101106.00
2022-11-01T10:05:18.633Z,101104.00
2022-11-01T10:08:08.118Z,101120.00
2022-11-01T10:10:43.089Z,101120.00
2022-11-01T10:13:28.094Z,101132.00
2022-11-01T10:16:27.159Z,101119.00
2022-11-01T10:19:04.525Z,101106.00
2022-11-01T10:21:53.011Z,101113.00
2022-11-01T10:24:46.375Z,101113.00
2022-11-01T10:27:30.703Z,101110.00
2022-11-01T10:30:04.039Z,101114.00
2022-11-01T10:32:42.961Z,101108.00
2022-11-01T10:35:17.233Z,101095.00
2022-11-01T10:38:03.954Z,101095.00
2022-11-01T10:40:41.476Z,101099.00
2022-11-01T10:43:16.935Z,101106.00
2022-11-01T10:45:47.782Z,101087.00
2022-11-01T10:48:41.230Z,101106.00
2022-11-01T10:51:09.335Z,101108.00
2022-11-01T10:53:42.348Z,101128.00
2022-11-01T10:56:15.171Z,101133.00
2022-11-01T10:59:18.008Z,101135.00
2022-11-01T11:01:45.282Z,101132.00
2022-11-01T11:04:15.642Z,101129.00
2022-11-01T11:06:43.763Z,101120.00
2022-11-01T11:09:40.850Z,101132.00
2022-11-01T11:12:21.694Z,101127.00
2022-11-01T11:14:53.079Z,101136.00
2022-11-01T11:17:24.879Z,101139.00
2022-11-01T11:19:55.250Z,101133.00
2022-11-01T11:22:23.021Z,101129.00
2022-11-01T11:24:50.492Z,101139.00
2022-11-01T11:27:25.636Z,101144.00
2022-11-01T11:29:54.994Z,101146.00
2022-11-01T11:32:27.598Z,101141.00
2022-11-01T11:35:00.985Z,101144.00
2022-11-01T11:37:35.510Z,101131.00
2022-11-01T11:40:17.189Z,101142.00
2022-11-01T11:42:44.437Z,101139.00
2022-11-01T11:45:23.466Z,101140.00
2022-11-01T11:47:50.138Z,101142.00
2022-11-01T11:50:33.722Z,101144.00
2022-11-01T11:53:04.783Z,101141.00
2022-11-01T11:55:35.788Z,101145.00
2022-11-01T11:58:05.448Z,101149.00
2022-11-01T12:00:35.241Z,101156.00
2022-11-01T12:03:06.583Z,101160.00
2022-11-01T12:05:34.025Z,101160.00
2022-11-01T12:08:00.767Z,101166.00
2022-11-01T12:10:32.489Z,101165.00
2022-11-01T12:12:59.079Z,101165.00
2022-11-01T12:15:38.451Z,101160.00
2022-11-01T12:18:17.990Z,101160.00
2022-11-01T12:20:50.951Z,101162.00
2022-11-01T12:23:37.577Z,101154.00
2022-11-01T12:26:11.326Z,101152.00
2022-11-01T12:28:47.635Z,101151.00
2022-11-01T12:31:22.152Z,101146.00
2022-11-01T12:34:07.264Z,101145.00
2022-11-01T12:36:43.894Z,101141.00
2022-11-01T12:39:29.251Z,101143.00
2022-11-01T12:42:02.719Z,101142.00
2022-11-01T12:44:34.260Z,101150.00
2022-11-01T12:47:06.615Z,101148.00
2022-11-01T12:49:42.432Z,101161.00
2022-11-01T12:52:17.320Z,101154.00
2022-11-01T12:54:50.269Z,101156.00
2022-11-01T12:57:18.464Z,101162.00
2022-11-01T12:59:46.821Z,101161.00
2022-11-01T13:02:29.546Z,101162.00
2022-11-01T13:05:05.581Z,101152.00
2022-11-01T13:07:49.178Z,101139.00
2022-11-01T13:10:28.413Z,101159.00
2022-11-01T13:13:15.503Z,101162.00
2022-11-01T13:15:56.433Z,101163.00
2022-11-01T13:18:46.608Z,101154.00
2022-11-01T13:21:35.781Z,101156.00
2022-11-01T13:24:19.291Z,101169.00
2022-11-01T13:26:49.964Z,101164.00
2022-11-01T13:29:39.420Z,101179.00
2022-11-01T13:32:26.457Z,101166.00
2022-11-01T13:35:12.637Z,101178.00
2022-11-01T13:38:02.584Z,101177.00
2022-11-01T13:40:54.918Z,101188.00
2022-11-01T13:43:26.412Z,101180.00
2022-11-01T13:46:14.766Z,101175.00
2022-11-01T13:49:06.734Z,101178.00
2022-11-01T13:52:01.286Z,101184.00
2022-11-01T13:54:34.946Z,101181.00
2022-11-01T13:57:11.547Z,101177.00
2022-11-01T13:59:37.911Z,101181.00
2022-11-01T14:02:22.393Z,101189.00
2022-11-01T14:05:03.815Z,101184.00
2022-11-01T14:08:06.060Z,101181.00
2022-11-01T14:10:35.867Z,101185.00
2022-11-01T14:13:08.047Z,101189.00
2022-11-01T14:15:39.667Z,101186.00
2022-11-01T14:18:07.872Z,101186.00
2022-11-01T14:20:41.429Z,101183.00
2022-11-01T14:23:27.758Z,101188.00
2022-11-01T14:26:19.846Z,101189.00
2022-11-01T14:28:48.803Z,101189.00
2022-11-01T14:31:17.437Z,101197.00
2022-11-01T14:33:48.214Z,101202.00
2022-11-01T14:36:16.643Z,101209.00
2022-11-01T14:38:52.724Z,101207.00
2022-11-01T14:41:21.268Z,101208.00
2022-11-01T14:43:52.020Z,101214.00
2022-11-01T14:46:22.753Z,101209.00
2022-11-01T14:49:10.669Z,101211.00
2022-11-01T14:51:44.702Z,101212.00
2022-11-01T14:54:19.088Z,101212.00
2022-11-01T14:56:52.861Z,101230.00
2022-11-01T14:59:23.434Z,101220.00
2022-11-01T15:02:01.090Z,101220.00
2022-11-01T15:04:39.061Z,101231.00
2022-11-01T15:07:19.659Z,101234.00
2022-11-01T15:10:06.299Z,101231.00
2022-11-01T15:12:47.346Z,101234.00
2022-11-01T15:15:19.149Z,101232.00
2022-11-01T15:17:55.514Z,101228.00
2022-11-01T15:20:23.116Z,101226.00
2022-11-01T15:22:54.303Z,101229.00
2022-11-01T15:25:23.713Z,101225.00
2022-11-01T15:27:50.817Z,101240.00
2022-11-01T15:30:26.939Z,101233.00
2022-11-01T15:33:14.991Z,101240.00
2022-11-01T15:35:41.626Z,101242.00
2022-11-01T15:38:20.762Z,101241.00
2022-11-01T15:40:48.729Z,101244.00
2022-11-01T15:43:18.281Z,101241.00
2022-11-01T15:45:48.561Z,101250.00
2022-11-01T15:48:22.177Z,101256.00
2022-11-01T15:50:55.497Z,101250.00
2022-11-01T15:53:26.435Z,101256.00
2022-11-01T15:56:00.423Z,101257.00
2022-11-01T15:58:32.905Z,101263.00
2022-11-01T16:01:03.093Z,101255.00
2022-11-01T16:03:44.861Z,101254.00
2022-11-01T16:06:37.082Z,101261.00
2022-11-01T16:09:17.364Z,101268.00
2022-11-01T16:11:44.745Z,101266.00
2022-11-01T16:14:25.380Z,101266.00
2022-11-01T16:17:04.316Z,101274.00
2022-11-01T16:19:51.541Z,101269.00
2022-11-01T16:22:35.592Z,101272.00
2022-11-01T16:25:13.823Z,101276.00
2022-11-01T16:28:25.956Z,101282.00
2022-11-01T16:30:53.991Z,101276.00
2022-11-01T16:33:35.697Z,101284.00
2022-11-01T16:36:20.544Z,101288.00
2022-11-01T16:38:51.238Z,101290.00
2022-11-01T16:41:20.250Z,101292.00
2022-11-01T16:43:57.757Z,101289.00
2022-11-01T16:46:26.113Z,101290.00
2022-11-01T16:49:00.616Z,101292.00
2022-11-01T16:51:29.380Z,101297.00
2022-11-01T16:53:56.763Z,101294.00
2022-11-01T16:56:37.671Z,101305.00
2022-11-01T16:59:08.278Z,101308.00
2022-11-01T17:01:36.448Z,101317.00
2022-11-01T17:04:03.881Z,101307.00
2022-11-01T17:06:33.479Z,101318.00
2022-11-01T17:09:04.230Z,101320.00
2022-11-01T17:11:30.628Z,101316.00
2022-11-01T17:13:57.195Z,101321.00
2022-11-01T17:16:27.285Z,101332.00
2022-11-01T17:18:56.414Z,101329.00
2022-11-01T17:21:23.496Z,101339.00
2022-11-01T17:23:53.510Z,101339.00
2022-11-01T17:26:20.003Z,101345.00
2022-11-01T17:28:52.166Z,101345.00
2022-11-01T17:31:18.887Z,101358.00
2022-11-01T17:33:45.337Z,101359.00
2022-11-01T17:36:14.608Z,101355.00
2022-11-01T17:38:41.202Z,101365.00
2022-11-01T17:41:10.834Z,101361.00
2022-11-01T17:43:37.709Z,101373.00
2022-11-01T17:46:13.784Z,101368.00
2022-11-01T17:48:40.303Z,101363.00
2022-11-01T17:51:06.738Z,101362.00
2022-11-01T17:53:34.860Z,101365.00
2022-11-01T17:56:01.336Z,101367.00
2022-11-01T17:58:27.899Z,101376.00
2022-11-01T18:00:54.349Z,101377.00
2022-11-01T18:03:21.357Z,101362.00
2022-11-01T18:05:47.754Z,101365.00
2022-11-01T18:08:17.698Z,101376.00
2022-11-01T18:11:00.998Z,101373.00
2022-11-01T18:13:41.105Z,101369.00
2022-11-01T18:16:26.613Z,101369.00
2022-11-01T18:19:06.847Z,101377.00
2022-11-01T18:22:08.422Z,101377.00
2022-11-01T18:24:43.670Z,101383.00
2022-11-01T18:27:12.006Z,101390.00
2022-11-01T18:29:41.952Z,101384.00
2022-11-01T18:32:18.432Z,101384.00
2022-11-01T18:34:58.787Z,101395.00
2022-11-01T18:37:32.338Z,101387.00
2022-11-01T18:40:32.473Z,101381.00
2022-11-01T18:43:03.038Z,101382.00
2022-11-01T18:45:40.827Z,101386.00
2022-11-01T18:48:23.409Z,101388.00
2022-11-01T18:50:59.895Z,101387.00
2022-11-01T18:53:30.730Z,101390.00
2022-11-01T18:56:17.237Z,101394.00
2022-11-01T18:58:43.730Z,101390.00
2022-11-01T19:01:14.483Z,101396.00
2022-11-01T19:03:41.105Z,101398.00
2022-11-01T19:06:34.418Z,101409.00
2022-11-01T19:09:15.247Z,101398.00
2022-11-01T19:11:41.862Z,101403.00
2022-11-01T19:14:15.237Z,101410.00
2022-11-01T19:16:42.397Z,101400.00
2022-11-01T19:19:18.281Z,101394.00
2022-11-01T19:21:44.900Z,101400.00
2022-11-01T19:24:35.402Z,101391.00
2022-11-01T19:27:16.214Z,101401.00
2022-11-01T19:29:43.152Z,101402.00
2022-11-01T19:32:21.112Z,101403.00
2022-11-01T19:34:53.001Z,101391.00
2022-11-01T19:37:29.253Z,101404.00
2022-11-01T19:39:58.253Z,101418.00
2022-11-01T19:42:33.576Z,101414.00
2022-11-01T19:45:29.260Z,101413.00
2022-11-01T19:47:57.451Z,101424.00
2022-11-01T19:50:29.969Z,101416.00
2022-11-01T19:52:58.407Z,101425.00
2022-11-01T19:55:36.441Z,101418.00
2022-11-01T19:58:24.856Z,101415.00
2022-11-01T20:01:03.529Z,101423.00
2022-11-01T20:03:52.251Z,101427.00
2022-11-01T20:06:24.756Z,101440.00
2022-11-01T20:08:56.657Z,101435.00
2022-11-01T20:11:23.093Z,101430.00
2022-11-01T20:13:50.471Z,101439.00
2022-11-01T20:16:18.047Z,101439.00
2022-11-01T20:18:51.249Z,101438.00
2022-11-01T20:21:19.132Z,101446.00
2022-11-01T20:26:26.901Z,101442.00
2022-11-01T20:28:53.925Z,101431.00
2022-11-01T20:31:25.901Z,101433.00
2022-11-01T20:33:54.122Z,101433.00
2022-11-01T20:36:24.912Z,101450.00
2022-11-01T20:38:51.537Z,101439.00
2022-11-01T20:41:28.356Z,101444.00
2022-11-01T20:43:56.130Z,101442.00
2022-11-01T20:46:23.966Z,101438.00
2022-11-01T20:48:50.409Z,101439.00
2022-11-01T20:51:22.288Z,101453.00
2022-11-01T20:53:48.952Z,101448.00
2022-11-01T20:56:34.500Z,101454.00
2022-11-01T21:01:28.821Z,101447.00
2022-11-01T21:03:55.347Z,101450.00
2022-11-01T21:06:25.196Z,101448.00
2022-11-01T21:08:51.783Z,101444.00
2022-11-01T21:11:44.494Z,101444.00
2022-11-01T21:14:18.506Z,101450.00
2022-11-01T21:16:44.923Z,101441.00
2022-11-01T21:19:22.792Z,101451.00
2022-11-01T21:21:58.762Z,101445.00
2022-11-01T21:24:31.203Z,101449.00
2022-11-01T21:27:12.786Z,101457.00
2022-11-01T21:29:42.770Z,101454.00
2022-11-01T21:32:25.557Z,101453.00
2022-11-01T21:34:52.032Z,101443.00
2022-11-01T21:37:22.744Z,101436.00
2022-11-01T21:40:00.154Z,101442.00
2022-11-01T21:42:32.634Z,101442.00
2022-11-01T21:44:59.558Z,101431.00
2022-11-01T21:47:34.850Z,101427.00
2022-11-01T21:50:01.266Z,101429.00
2022-11-01T21:52:27.676Z,101416.00
2022-11-01T21:54:54.351Z,101436.00
2022-11-01T21:57:21.172Z,101432.00
2022-11-01T21:59:47.711Z,101431.00
2022-11-01T22:02:15.051Z,101446.00
2022-11-01T22:04:41.960Z,101443.00
2022-11-01T22:07:09.685Z,101447.00
2022-11-01T22:09:36.579Z,101435.00
2022-11-01T22:12:03.455Z,101442.00
2022-11-01T22:14:30.280Z,101424.00
2022-11-01T22:16:56.891Z,101430.00
2022-11-01T22:19:23.501Z,101435.00
2022-11-01T22:21:49.910Z,101424.00
2022-11-01T22:24:16.559Z,101431.00
2022-11-01T22:26:43.005Z,101433.00
2022-11-01T22:29:09.662Z,101427.00
2022-11-01T22:31:36.362Z,101436.00
2022-11-01T22:34:03.185Z,101435.00
2022-11-01T22:36:34.077Z,101434.00
2022-11-01T22:39:06.564Z,101441.00
2022-11-01T22:41:36.223Z,101429.00
2022-11-01T22:44:10.977Z,101438.00
2022-11-01T22:46:56.959Z,101443.00
2022-11-01T22:49:35.757Z,101446.00
2022-11-01T22:52:30.640Z,101440.00
2022-11-01T22:55:03.546Z,101433.00
2022-11-01T22:57:34.702Z,101437.00
2022-11-01T23:00:21.419Z,101440.00
2022-11-01T23:02:48.025Z,101435.00
2022-11-01T23:05:24.625Z,101444.00
2022-11-01T23:07:53.892Z,101439.00
2022-11-01T23:10:25.210Z,101444.00
2022-11-01T23:13:17.122Z,101438.00
2022-11-01T23:15:44.279Z,101433.00
2022-11-01T23:18:23.289Z,101440.00
2022-11-01T23:21:05.471Z,101434.00
2022-11-01T23:23:32.003Z,101442.00
2022-11-01T23:26:02.145Z,101435.00
2022-11-01T23:28:29.627Z,101437.00
2022-11-01T23:30:57.545Z,101427.00
2022-11-01T23:33:27.721Z,101425.00
2022-11-01T23:35:56.214Z,101424.00
2022-11-01T23:38:35.899Z,101425.00
2022-11-01T23:41:02.616Z,101429.00
2022-11-01T23:43:40.976Z,101423.00
2022-11-01T23:46:09.853Z,101422.00
2022-11-01T23:48:41.582Z,101423.00
2022-11-01T23:51:14.283Z,101433.00
2022-11-01T23:53:41.445Z,101432.00
2022-11-01T23:56:09.277Z,101441.00
2022-11-01T23:58:37.642Z,101438.00
